sensor_id;sensor_type;location;lat;lon;timestamp;temperature;humidity
25554;DHT22;13446;50.926;5.332;2023-10-08T00:02:03;18.10;99.90
25554;DHT22;13446;50.926;5.332;2023-10-08T00:04:28;18.00;99.90
25554;DHT22;13446;50.926;5.332;2023-10-08T00:06:54;18.00;99.90
25554;DHT22;13446;50.926;5.332;2023-10-08T00:09:20;18.00;99.90
25554;DHT22;13446;50.926;5.332;2023-10-08T00:11:47;18.00;99.90
25554;DHT22;13446;50.926;5.332;2023-10-08T00:14:18;17.90;99.90
25554;DHT22;13446;50.926;5.332;2023-10-08T00:16:47;18.00;99.90
25554;DHT22;13446;50.926;5.332;2023-10-08T00:19:15;18.00;99.90
25554;DHT22;13446;50.926;5.332;2023-10-08T00:21:43;18.00;99.90
25554;DHT22;13446;50.926;5.332;2023-10-08T00:24:11;17.90;99.90
25554;DHT22;13446;50.926;5.332;2023-10-08T00:26:39;17.80;99.90
25554;DHT22;13446;50.926;5.332;2023-10-08T00:29:06;17.80;99.90
25554;DHT22;13446;50.926;5.332;2023-10-08T00:31:44;17.90;99.90
25554;DHT22;13446;50.926;5.332;2023-10-08T00:34:15;17.90;99.90
25554;DHT22;13446;50.926;5.332;2023-10-08T00:36:42;17.80;99.90
25554;DHT22;13446;50.926;5.332;2023-10-08T00:39:08;17.70;99.90
25554;DHT22;13446;50.926;5.332;2023-10-08T00:41:41;17.80;99.90
25554;DHT22;13446;50.926;5.332;2023-10-08T00:44:12;17.70;99.90
25554;DHT22;13446;50.926;5.332;2023-10-08T00:46:47;17.60;99.90
25554;DHT22;13446;50.926;5.332;2023-10-08T00:49:15;17.60;99.90
25554;DHT22;13446;50.926;5.332;2023-10-08T00:51:47;17.50;99.90
25554;DHT22;13446;50.926;5.332;2023-10-08T00:54:13;17.50;99.90
25554;DHT22;13446;50.926;5.332;2023-10-08T00:56:45;17.50;99.90
25554;DHT22;13446;50.926;5.332;2023-10-08T00:59:26;17.50;99.90
25554;DHT22;13446;50.926;5.332;2023-10-08T01:01:52;17.40;99.90
25554;DHT22;13446;50.926;5.332;2023-10-08T01:04:24;17.50;99.90
25554;DHT22;13446;50.926;5.332;2023-10-08T01:06:53;17.50;99.90
25554;DHT22;13446;50.926;5.332;2023-10-08T01:09:21;17.40;99.90
25554;DHT22;13446;50.926;5.332;2023-10-08T01:14:41;17.40;99.90
25554;DHT22;13446;50.926;5.332;2023-10-08T01:17:12;17.50;99.90
25554;DHT22;13446;50.926;5.332;2023-10-08T01:19:40;17.40;99.90
25554;DHT22;13446;50.926;5.332;2023-10-08T01:22:07;17.40;99.90
25554;DHT22;13446;50.926;5.332;2023-10-08T01:24:35;17.30;99.90
25554;DHT22;13446;50.926;5.332;2023-10-08T01:27:01;17.20;99.90
25554;DHT22;13446;50.926;5.332;2023-10-08T01:29:30;17.20;99.90
25554;DHT22;13446;50.926;5.332;2023-10-08T01:31:57;17.10;99.90
25554;DHT22;13446;50.926;5.332;2023-10-08T01:34:22;17.10;99.90
25554;DHT22;13446;50.926;5.332;2023-10-08T01:36:52;17.20;99.90
25554;DHT22;13446;50.926;5.332;2023-10-08T01:39:39;17.10;99.90
25554;DHT22;13446;50.926;5.332;2023-10-08T01:42:08;17.20;99.90
25554;DHT22;13446;50.926;5.332;2023-10-08T01:44:42;17.20;99.90
25554;DHT22;13446;50.926;5.332;2023-10-08T01:47:10;17.00;99.90
25554;DHT22;13446;50.926;5.332;2023-10-08T01:49:36;17.00;99.90
25554;DHT22;13446;50.926;5.332;2023-10-08T01:52:04;17.00;99.90
25554;DHT22;13446;50.926;5.332;2023-10-08T01:54:33;17.00;99.90
25554;DHT22;13446;50.926;5.332;2023-10-08T01:57:01;17.00;99.90
25554;DHT22;13446;50.926;5.332;2023-10-08T01:59:26;17.00;99.90
25554;DHT22;13446;50.926;5.332;2023-10-08T02:01:52;16.90;99.90
25554;DHT22;13446;50.926;5.332;2023-10-08T02:04:21;16.90;99.90
25554;DHT22;13446;50.926;5.332;2023-10-08T02:06:47;17.00;99.90
25554;DHT22;13446;50.926;5.332;2023-10-08T02:09:12;17.10;99.90
25554;DHT22;13446;50.926;5.332;2023-10-08T02:11:48;17.00;99.90
25554;DHT22;13446;50.926;5.332;2023-10-08T02:14:15;17.00;99.90
25554;DHT22;13446;50.926;5.332;2023-10-08T02:16:42;17.00;99.90
25554;DHT22;13446;50.926;5.332;2023-10-08T02:19:08;17.00;99.90
25554;DHT22;13446;50.926;5.332;2023-10-08T02:21:36;17.00;99.90
25554;DHT22;13446;50.926;5.332;2023-10-08T02:24:03;16.90;99.90
25554;DHT22;13446;50.926;5.332;2023-10-08T02:26:29;16.90;99.90
25554;DHT22;13446;50.926;5.332;2023-10-08T02:28:57;16.80;99.90
25554;DHT22;13446;50.926;5.332;2023-10-08T02:31:25;16.90;99.90
25554;DHT22;13446;50.926;5.332;2023-10-08T02:33:50;17.00;99.90
25554;DHT22;13446;50.926;5.332;2023-10-08T02:36:16;16.90;99.90
25554;DHT22;13446;50.926;5.332;2023-10-08T02:38:44;17.00;99.90
25554;DHT22;13446;50.926;5.332;2023-10-08T02:41:15;16.90;99.90
25554;DHT22;13446;50.926;5.332;2023-10-08T02:43:40;17.00;99.90
25554;DHT22;13446;50.926;5.332;2023-10-08T02:46:07;16.90;99.90
25554;DHT22;13446;50.926;5.332;2023-10-08T02:48:35;17.00;99.90
25554;DHT22;13446;50.926;5.332;2023-10-08T02:51:01;17.00;99.90
25554;DHT22;13446;50.926;5.332;2023-10-08T02:53:33;17.10;99.90
25554;DHT22;13446;50.926;5.332;2023-10-08T02:55:58;17.10;99.90
25554;DHT22;13446;50.926;5.332;2023-10-08T02:58:24;17.10;99.90
25554;DHT22;13446;50.926;5.332;2023-10-08T03:00:53;17.10;99.90
25554;DHT22;13446;50.926;5.332;2023-10-08T03:03:18;17.20;99.90
25554;DHT22;13446;50.926;5.332;2023-10-08T03:05:45;17.10;99.90
25554;DHT22;13446;50.926;5.332;2023-10-08T03:08:12;17.00;99.90
25554;DHT22;13446;50.926;5.332;2023-10-08T03:10:38;17.00;99.90
25554;DHT22;13446;50.926;5.332;2023-10-08T03:13:03;17.10;99.90
25554;DHT22;13446;50.926;5.332;2023-10-08T03:15:35;17.10;99.90
25554;DHT22;13446;50.926;5.332;2023-10-08T03:18:12;17.00;99.90
25554;DHT22;13446;50.926;5.332;2023-10-08T03:20:40;17.10;99.90
25554;DHT22;13446;50.926;5.332;2023-10-08T03:23:13;17.10;99.90
25554;DHT22;13446;50.926;5.332;2023-10-08T03:25:59;17.10;99.90
25554;DHT22;13446;50.926;5.332;2023-10-08T03:28:53;17.00;99.90
25554;DHT22;13446;50.926;5.332;2023-10-08T03:31:23;17.00;99.90
25554;DHT22;13446;50.926;5.332;2023-10-08T03:34:10;16.90;99.90
25554;DHT22;13446;50.926;5.332;2023-10-08T03:36:38;17.00;99.90
25554;DHT22;13446;50.926;5.332;2023-10-08T03:39:15;16.90;99.90
25554;DHT22;13446;50.926;5.332;2023-10-08T03:41:43;17.00;99.90
25554;DHT22;13446;50.926;5.332;2023-10-08T03:44:17;17.00;99.90
25554;DHT22;13446;50.926;5.332;2023-10-08T03:46:42;17.10;99.90
25554;DHT22;13446;50.926;5.332;2023-10-08T03:49:08;16.90;99.90
25554;DHT22;13446;50.926;5.332;2023-10-08T03:51:51;16.90;99.90
25554;DHT22;13446;50.926;5.332;2023-10-08T03:54:17;16.80;99.90
25554;DHT22;13446;50.926;5.332;2023-10-08T03:56:59;16.80;99.90
25554;DHT22;13446;50.926;5.332;2023-10-08T03:59:25;16.80;99.90
25554;DHT22;13446;50.926;5.332;2023-10-08T04:01:59;16.80;99.90
25554;DHT22;13446;50.926;5.332;2023-10-08T04:04:35;16.90;99.90
25554;DHT22;13446;50.926;5.332;2023-10-08T04:07:18;16.80;99.90
25554;DHT22;13446;50.926;5.332;2023-10-08T04:09:57;16.80;99.90
25554;DHT22;13446;50.926;5.332;2023-10-08T04:12:46;16.70;99.90
25554;DHT22;13446;50.926;5.332;2023-10-08T04:15:16;16.70;99.90
25554;DHT22;13446;50.926;5.332;2023-10-08T04:17:42;16.70;99.90
25554;DHT22;13446;50.926;5.332;2023-10-08T04:20:15;16.80;99.90
25554;DHT22;13446;50.926;5.332;2023-10-08T04:23:04;16.70;99.90
25554;DHT22;13446;50.926;5.332;2023-10-08T04:25:30;16.70;99.90
25554;DHT22;13446;50.926;5.332;2023-10-08T04:27:57;16.70;99.90
25554;DHT22;13446;50.926;5.332;2023-10-08T04:30:26;16.70;99.90
25554;DHT22;13446;50.926;5.332;2023-10-08T04:33:01;16.70;99.90
25554;DHT22;13446;50.926;5.332;2023-10-08T04:35:43;16.70;99.90
25554;DHT22;13446;50.926;5.332;2023-10-08T04:38:21;16.60;99.90
25554;DHT22;13446;50.926;5.332;2023-10-08T04:40:47;16.50;99.90
25554;DHT22;13446;50.926;5.332;2023-10-08T04:43:14;16.40;99.90
25554;DHT22;13446;50.926;5.332;2023-10-08T04:45:41;16.40;99.90
25554;DHT22;13446;50.926;5.332;2023-10-08T04:48:06;16.40;99.90
25554;DHT22;13446;50.926;5.332;2023-10-08T04:50:35;16.40;99.90
25554;DHT22;13446;50.926;5.332;2023-10-08T04:53:02;16.40;99.90
25554;DHT22;13446;50.926;5.332;2023-10-08T04:55:35;16.30;99.90
25554;DHT22;13446;50.926;5.332;2023-10-08T04:58:07;16.30;99.90
25554;DHT22;13446;50.926;5.332;2023-10-08T05:00:45;16.20;99.90
25554;DHT22;13446;50.926;5.332;2023-10-08T05:03:20;16.20;99.90
25554;DHT22;13446;50.926;5.332;2023-10-08T05:05:47;16.20;99.90
25554;DHT22;13446;50.926;5.332;2023-10-08T05:08:31;16.10;99.90
25554;DHT22;13446;50.926;5.332;2023-10-08T05:11:15;16.20;99.90
25554;DHT22;13446;50.926;5.332;2023-10-08T05:13:50;16.20;99.90
25554;DHT22;13446;50.926;5.332;2023-10-08T05:16:27;16.20;99.90
25554;DHT22;13446;50.926;5.332;2023-10-08T05:19:10;16.20;99.90
25554;DHT22;13446;50.926;5.332;2023-10-08T05:22:11;16.10;99.90
25554;DHT22;13446;50.926;5.332;2023-10-08T05:24:47;16.10;99.90
25554;DHT22;13446;50.926;5.332;2023-10-08T05:27:35;16.10;99.90
25554;DHT22;13446;50.926;5.332;2023-10-08T05:30:22;16.00;99.90
25554;DHT22;13446;50.926;5.332;2023-10-08T05:32:57;16.00;99.90
25554;DHT22;13446;50.926;5.332;2023-10-08T05:35:40;16.00;99.90
25554;DHT22;13446;50.926;5.332;2023-10-08T05:38:07;15.90;99.90
25554;DHT22;13446;50.926;5.332;2023-10-08T05:40:47;15.90;99.90
25554;DHT22;13446;50.926;5.332;2023-10-08T05:43:25;15.90;99.90
25554;DHT22;13446;50.926;5.332;2023-10-08T05:46:12;16.00;99.90
25554;DHT22;13446;50.926;5.332;2023-10-08T05:48:53;15.90;99.90
25554;DHT22;13446;50.926;5.332;2023-10-08T05:51:31;16.00;99.90
25554;DHT22;13446;50.926;5.332;2023-10-08T05:54:11;16.00;99.90
25554;DHT22;13446;50.926;5.332;2023-10-08T05:56:50;16.00;99.90
25554;DHT22;13446;50.926;5.332;2023-10-08T05:59:35;15.90;99.90
25554;DHT22;13446;50.926;5.332;2023-10-08T06:02:31;15.80;99.90
25554;DHT22;13446;50.926;5.332;2023-10-08T06:05:17;15.70;99.90
25554;DHT22;13446;50.926;5.332;2023-10-08T06:07:51;15.80;99.90
25554;DHT22;13446;50.926;5.332;2023-10-08T06:10:17;15.90;99.90
25554;DHT22;13446;50.926;5.332;2023-10-08T06:12:58;15.90;99.90
25554;DHT22;13446;50.926;5.332;2023-10-08T06:15:35;15.90;99.90
25554;DHT22;13446;50.926;5.332;2023-10-08T06:18:20;15.90;99.90
25554;DHT22;13446;50.926;5.332;2023-10-08T06:20:51;16.10;99.90
25554;DHT22;13446;50.926;5.332;2023-10-08T06:23:20;16.20;99.90
25554;DHT22;13446;50.926;5.332;2023-10-08T06:25:46;16.20;99.90
25554;DHT22;13446;50.926;5.332;2023-10-08T06:30:42;16.30;99.90
25554;DHT22;13446;50.926;5.332;2023-10-08T06:33:08;16.50;99.90
25554;DHT22;13446;50.926;5.332;2023-10-08T06:35:34;16.50;99.90
25554;DHT22;13446;50.926;5.332;2023-10-08T06:38:01;16.50;99.90
25554;DHT22;13446;50.926;5.332;2023-10-08T06:40:35;16.70;99.90
25554;DHT22;13446;50.926;5.332;2023-10-08T06:43:01;16.80;99.90
25554;DHT22;13446;50.926;5.332;2023-10-08T06:45:47;17.00;99.90
25554;DHT22;13446;50.926;5.332;2023-10-08T06:48:13;17.20;99.90
25554;DHT22;13446;50.926;5.332;2023-10-08T06:50:54;17.30;99.90
25554;DHT22;13446;50.926;5.332;2023-10-08T06:53:22;17.40;99.90
25554;DHT22;13446;50.926;5.332;2023-10-08T06:55:48;17.60;99.90
25554;DHT22;13446;50.926;5.332;2023-10-08T06:58:19;17.90;99.90
25554;DHT22;13446;50.926;5.332;2023-10-08T07:00:45;18.20;99.90
25554;DHT22;13446;50.926;5.332;2023-10-08T07:03:14;18.60;99.90
25554;DHT22;13446;50.926;5.332;2023-10-08T07:05:50;19.10;99.90
25554;DHT22;13446;50.926;5.332;2023-10-08T07:08:29;19.50;99.90
25554;DHT22;13446;50.926;5.332;2023-10-08T07:10:57;19.70;99.90
25554;DHT22;13446;50.926;5.332;2023-10-08T07:13:24;19.70;99.90
25554;DHT22;13446;50.926;5.332;2023-10-08T07:15:50;19.80;99.90
25554;DHT22;13446;50.926;5.332;2023-10-08T07:18:16;20.00;99.90
25554;DHT22;13446;50.926;5.332;2023-10-08T07:20:50;20.10;99.90
25554;DHT22;13446;50.926;5.332;2023-10-08T07:23:25;20.30;99.90
25554;DHT22;13446;50.926;5.332;2023-10-08T07:25:52;20.70;99.90
25554;DHT22;13446;50.926;5.332;2023-10-08T07:28:19;21.10;99.90
25554;DHT22;13446;50.926;5.332;2023-10-08T07:30:45;21.40;99.90
25554;DHT22;13446;50.926;5.332;2023-10-08T07:33:12;21.40;99.90
25554;DHT22;13446;50.926;5.332;2023-10-08T07:35:46;21.80;99.90
25554;DHT22;13446;50.926;5.332;2023-10-08T07:38:38;22.20;99.90
25554;DHT22;13446;50.926;5.332;2023-10-08T07:41:08;22.70;99.90
25554;DHT22;13446;50.926;5.332;2023-10-08T07:43:34;22.90;99.90
25554;DHT22;13446;50.926;5.332;2023-10-08T07:46:00;23.20;99.90
25554;DHT22;13446;50.926;5.332;2023-10-08T07:48:26;23.80;99.90
25554;DHT22;13446;50.926;5.332;2023-10-08T07:50:55;24.40;99.90
25554;DHT22;13446;50.926;5.332;2023-10-08T07:53:21;24.50;99.60
25554;DHT22;13446;50.926;5.332;2023-10-08T07:55:46;25.20;99.00
25554;DHT22;13446;50.926;5.332;2023-10-08T07:58:14;26.10;97.00
25554;DHT22;13446;50.926;5.332;2023-10-08T08:00:40;26.80;94.60
25554;DHT22;13446;50.926;5.332;2023-10-08T08:03:06;27.40;92.50
25554;DHT22;13446;50.926;5.332;2023-10-08T08:05:32;28.00;90.60
25554;DHT22;13446;50.926;5.332;2023-10-08T08:07:58;28.10;86.80
25554;DHT22;13446;50.926;5.332;2023-10-08T08:10:31;28.20;86.00
25554;DHT22;13446;50.926;5.332;2023-10-08T08:13:03;28.30;82.80
25554;DHT22;13446;50.926;5.332;2023-10-08T08:15:34;28.30;82.60
25554;DHT22;13446;50.926;5.332;2023-10-08T08:18:01;28.70;80.80
25554;DHT22;13446;50.926;5.332;2023-10-08T08:20:30;29.10;79.00
25554;DHT22;13446;50.926;5.332;2023-10-08T08:23:08;29.60;75.90
25554;DHT22;13446;50.926;5.332;2023-10-08T08:25:41;30.10;73.80
25554;DHT22;13446;50.926;5.332;2023-10-08T08:28:42;30.20;71.90
25554;DHT22;13446;50.926;5.332;2023-10-08T08:31:07;30.30;69.80
25554;DHT22;13446;50.926;5.332;2023-10-08T08:33:39;30.50;69.00
25554;DHT22;13446;50.926;5.332;2023-10-08T08:36:26;31.20;67.60
25554;DHT22;13446;50.926;5.332;2023-10-08T08:38:52;31.70;65.40
25554;DHT22;13446;50.926;5.332;2023-10-08T08:41:19;32.20;63.60
25554;DHT22;13446;50.926;5.332;2023-10-08T08:43:54;32.60;62.40
25554;DHT22;13446;50.926;5.332;2023-10-08T08:46:33;32.70;60.00
25554;DHT22;13446;50.926;5.332;2023-10-08T08:49:02;32.90;59.00
25554;DHT22;13446;50.926;5.332;2023-10-08T08:51:29;33.30;58.60
25554;DHT22;13446;50.926;5.332;2023-10-08T08:53:55;33.00;58.10
25554;DHT22;13446;50.926;5.332;2023-10-08T08:56:21;33.10;58.00
25554;DHT22;13446;50.926;5.332;2023-10-08T08:58:46;33.40;57.70
25554;DHT22;13446;50.926;5.332;2023-10-08T09:01:12;34.00;56.40
25554;DHT22;13446;50.926;5.332;2023-10-08T09:03:39;34.30;55.20
25554;DHT22;13446;50.926;5.332;2023-10-08T09:06:05;34.40;54.70
25554;DHT22;13446;50.926;5.332;2023-10-08T09:08:34;34.10;54.80
25554;DHT22;13446;50.926;5.332;2023-10-08T09:11:00;33.90;55.50
25554;DHT22;13446;50.926;5.332;2023-10-08T09:13:26;34.40;55.40
25554;DHT22;13446;50.926;5.332;2023-10-08T09:15:52;35.00;54.70
25554;DHT22;13446;50.926;5.332;2023-10-08T09:18:23;35.30;53.30
25554;DHT22;13446;50.926;5.332;2023-10-08T09:20:49;35.40;52.20
25554;DHT22;13446;50.926;5.332;2023-10-08T09:23:15;35.50;52.20
25554;DHT22;13446;50.926;5.332;2023-10-08T09:25:43;35.80;51.20
25554;DHT22;13446;50.926;5.332;2023-10-08T09:28:09;36.10;51.10
25554;DHT22;13446;50.926;5.332;2023-10-08T09:30:38;36.60;50.80
25554;DHT22;13446;50.926;5.332;2023-10-08T09:33:09;36.80;50.40
25554;DHT22;13446;50.926;5.332;2023-10-08T09:35:34;36.30;49.10
25554;DHT22;13446;50.926;5.332;2023-10-08T09:38:04;36.10;50.20
25554;DHT22;13446;50.926;5.332;2023-10-08T09:40:30;35.70;50.20
25554;DHT22;13446;50.926;5.332;2023-10-08T09:42:56;35.80;51.00
25554;DHT22;13446;50.926;5.332;2023-10-08T09:45:22;36.20;49.90
25554;DHT22;13446;50.926;5.332;2023-10-08T09:47:54;35.50;50.00
25554;DHT22;13446;50.926;5.332;2023-10-08T09:50:22;35.50;50.90
25554;DHT22;13446;50.926;5.332;2023-10-08T09:53:06;36.10;50.20
25554;DHT22;13446;50.926;5.332;2023-10-08T09:55:33;36.60;49.70
25554;DHT22;13446;50.926;5.332;2023-10-08T09:57:59;36.60;48.70
25554;DHT22;13446;50.926;5.332;2023-10-08T10:00:25;36.60;49.30
25554;DHT22;13446;50.926;5.332;2023-10-08T10:02:58;36.90;49.00
25554;DHT22;13446;50.926;5.332;2023-10-08T10:05:27;37.50;48.40
25554;DHT22;13446;50.926;5.332;2023-10-08T10:07:57;37.60;47.50
25554;DHT22;13446;50.926;5.332;2023-10-08T10:10:26;36.90;46.90
25554;DHT22;13446;50.926;5.332;2023-10-08T10:12:52;37.20;47.80
25554;DHT22;13446;50.926;5.332;2023-10-08T10:15:21;36.50;48.50
25554;DHT22;13446;50.926;5.332;2023-10-08T10:17:47;37.40;47.40
25554;DHT22;13446;50.926;5.332;2023-10-08T10:20:14;38.30;46.50
25554;DHT22;13446;50.926;5.332;2023-10-08T10:22:40;38.40;44.90
25554;DHT22;13446;50.926;5.332;2023-10-08T10:25:10;37.40;46.40
25554;DHT22;13446;50.926;5.332;2023-10-08T10:30:19;36.60;47.60
25554;DHT22;13446;50.926;5.332;2023-10-08T10:32:45;37.50;46.50
25554;DHT22;13446;50.926;5.332;2023-10-08T10:35:14;36.80;45.70
25554;DHT22;13446;50.926;5.332;2023-10-08T10:37:43;36.60;47.20
25554;DHT22;13446;50.926;5.332;2023-10-08T10:40:20;36.80;47.00
25554;DHT22;13446;50.926;5.332;2023-10-08T10:42:57;37.30;46.40
25554;DHT22;13446;50.926;5.332;2023-10-08T10:45:24;37.40;46.00
25554;DHT22;13446;50.926;5.332;2023-10-08T10:48:05;37.30;45.60
25554;DHT22;13446;50.926;5.332;2023-10-08T10:50:41;36.70;46.60
25554;DHT22;13446;50.926;5.332;2023-10-08T10:53:25;36.00;47.30
25554;DHT22;13446;50.926;5.332;2023-10-08T10:55:52;35.30;48.20
25554;DHT22;13446;50.926;5.332;2023-10-08T10:58:35;33.50;50.20
25554;DHT22;13446;50.926;5.332;2023-10-08T11:01:05;32.80;52.80
25554;DHT22;13446;50.926;5.332;2023-10-08T11:03:52;32.50;53.80
25554;DHT22;13446;50.926;5.332;2023-10-08T11:06:20;32.40;54.70
25554;DHT22;13446;50.926;5.332;2023-10-08T11:08:49;33.00;54.20
25554;DHT22;13446;50.926;5.332;2023-10-08T11:11:16;33.40;53.30
25554;DHT22;13446;50.926;5.332;2023-10-08T11:13:42;33.00;53.20
25554;DHT22;13446;50.926;5.332;2023-10-08T11:16:15;32.70;54.40
25554;DHT22;13446;50.926;5.332;2023-10-08T11:18:42;33.50;54.10
25554;DHT22;13446;50.926;5.332;2023-10-08T11:21:08;34.90;52.30
25554;DHT22;13446;50.926;5.332;2023-10-08T11:23:49;35.10;51.00
25554;DHT22;13446;50.926;5.332;2023-10-08T11:26:19;35.70;51.10
25554;DHT22;13446;50.926;5.332;2023-10-08T11:28:44;36.60;50.10
25554;DHT22;13446;50.926;5.332;2023-10-08T11:31:13;37.40;48.70
25554;DHT22;13446;50.926;5.332;2023-10-08T11:33:42;37.70;48.20
25554;DHT22;13446;50.926;5.332;2023-10-08T11:36:08;37.90;47.30
25554;DHT22;13446;50.926;5.332;2023-10-08T11:38:44;38.30;46.70
25554;DHT22;13446;50.926;5.332;2023-10-08T11:41:13;38.10;46.30
25554;DHT22;13446;50.926;5.332;2023-10-08T11:43:49;38.10;46.40
25554;DHT22;13446;50.926;5.332;2023-10-08T11:46:26;37.60;46.10
25554;DHT22;13446;50.926;5.332;2023-10-08T11:48:53;38.00;45.90
25554;DHT22;13446;50.926;5.332;2023-10-08T11:51:22;38.10;45.70
25554;DHT22;13446;50.926;5.332;2023-10-08T11:53:49;38.10;45.50
25554;DHT22;13446;50.926;5.332;2023-10-08T11:56:15;38.00;45.40
25554;DHT22;13446;50.926;5.332;2023-10-08T11:58:40;37.80;46.00
25554;DHT22;13446;50.926;5.332;2023-10-08T12:01:12;36.70;47.40
25554;DHT22;13446;50.926;5.332;2023-10-08T12:03:50;37.50;46.50
25554;DHT22;13446;50.926;5.332;2023-10-08T12:06:16;36.90;47.10
25554;DHT22;13446;50.926;5.332;2023-10-08T12:08:44;37.10;46.30
25554;DHT22;13446;50.926;5.332;2023-10-08T12:11:11;37.40;46.20
25554;DHT22;13446;50.926;5.332;2023-10-08T12:13:39;38.00;45.80
25554;DHT22;13446;50.926;5.332;2023-10-08T12:16:12;38.50;44.70
25554;DHT22;13446;50.926;5.332;2023-10-08T12:18:46;38.80;44.40
25554;DHT22;13446;50.926;5.332;2023-10-08T12:21:21;38.50;44.40
25554;DHT22;13446;50.926;5.332;2023-10-08T12:23:47;38.50;44.60
25554;DHT22;13446;50.926;5.332;2023-10-08T12:26:13;38.30;44.90
25554;DHT22;13446;50.926;5.332;2023-10-08T12:28:42;37.90;45.60
25554;DHT22;13446;50.926;5.332;2023-10-08T12:31:12;38.00;45.80
25554;DHT22;13446;50.926;5.332;2023-10-08T12:33:38;38.30;46.10
25554;DHT22;13446;50.926;5.332;2023-10-08T12:36:05;37.40;46.20
25554;DHT22;13446;50.926;5.332;2023-10-08T12:38:36;37.50;46.10
25554;DHT22;13446;50.926;5.332;2023-10-08T12:41:03;37.50;46.20
25554;DHT22;13446;50.926;5.332;2023-10-08T12:43:40;37.60;45.70
25554;DHT22;13446;50.926;5.332;2023-10-08T12:46:23;37.50;46.20
25554;DHT22;13446;50.926;5.332;2023-10-08T12:48:56;37.40;46.40
25554;DHT22;13446;50.926;5.332;2023-10-08T12:51:22;37.20;46.90
25554;DHT22;13446;50.926;5.332;2023-10-08T12:53:49;36.20;46.80
25554;DHT22;13446;50.926;5.332;2023-10-08T12:56:25;35.90;48.00
25554;DHT22;13446;50.926;5.332;2023-10-08T12:59:00;36.30;49.00
25554;DHT22;13446;50.926;5.332;2023-10-08T13:01:29;36.20;47.90
25554;DHT22;13446;50.926;5.332;2023-10-08T13:03:55;36.60;47.40
25554;DHT22;13446;50.926;5.332;2023-10-08T13:06:26;36.90;47.30
25554;DHT22;13446;50.926;5.332;2023-10-08T13:08:55;36.50;47.40
25554;DHT22;13446;50.926;5.332;2023-10-08T13:11:22;36.50;47.60
25554;DHT22;13446;50.926;5.332;2023-10-08T13:13:51;35.50;48.00
25554;DHT22;13446;50.926;5.332;2023-10-08T13:16:17;34.60;49.90
25554;DHT22;13446;50.926;5.332;2023-10-08T13:18:43;33.60;50.50
25554;DHT22;13446;50.926;5.332;2023-10-08T13:21:09;32.90;52.20
25554;DHT22;13446;50.926;5.332;2023-10-08T13:23:35;32.90;52.80
25554;DHT22;13446;50.926;5.332;2023-10-08T13:26:01;33.10;52.10
25554;DHT22;13446;50.926;5.332;2023-10-08T13:28:30;33.10;52.30
25554;DHT22;13446;50.926;5.332;2023-10-08T13:31:02;33.60;52.80
25554;DHT22;13446;50.926;5.332;2023-10-08T13:33:37;33.90;50.80
25554;DHT22;13446;50.926;5.332;2023-10-08T13:36:05;34.10;51.70
25554;DHT22;13446;50.926;5.332;2023-10-08T13:38:33;34.20;51.00
25554;DHT22;13446;50.926;5.332;2023-10-08T13:40:59;34.20;50.90
25554;DHT22;13446;50.926;5.332;2023-10-08T13:43:31;34.00;51.10
25554;DHT22;13446;50.926;5.332;2023-10-08T13:46:02;33.80;52.10
25554;DHT22;13446;50.926;5.332;2023-10-08T13:48:33;33.20;52.10
25554;DHT22;13446;50.926;5.332;2023-10-08T13:50:59;32.90;53.20
25554;DHT22;13446;50.926;5.332;2023-10-08T13:53:25;32.60;53.60
25554;DHT22;13446;50.926;5.332;2023-10-08T13:55:56;32.60;55.00
25554;DHT22;13446;50.926;5.332;2023-10-08T13:58:21;32.40;54.20
25554;DHT22;13446;50.926;5.332;2023-10-08T14:00:47;32.30;55.30
25554;DHT22;13446;50.926;5.332;2023-10-08T14:03:16;31.80;55.40
25554;DHT22;13446;50.926;5.332;2023-10-08T14:05:47;31.20;58.00
25554;DHT22;13446;50.926;5.332;2023-10-08T14:08:16;30.60;58.90
25554;DHT22;13446;50.926;5.332;2023-10-08T14:10:43;30.20;60.20
25554;DHT22;13446;50.926;5.332;2023-10-08T14:13:09;29.80;60.90
25554;DHT22;13446;50.926;5.332;2023-10-08T14:15:34;29.40;60.70
25554;DHT22;13446;50.926;5.332;2023-10-08T14:18:07;29.30;62.40
25554;DHT22;13446;50.926;5.332;2023-10-08T14:20:34;29.10;63.60
25554;DHT22;13446;50.926;5.332;2023-10-08T14:22:59;28.90;65.10
25554;DHT22;13446;50.926;5.332;2023-10-08T14:25:27;28.60;65.70
25554;DHT22;13446;50.926;5.332;2023-10-08T14:27:59;28.50;67.20
25554;DHT22;13446;50.926;5.332;2023-10-08T14:30:31;28.60;67.70
25554;DHT22;13446;50.926;5.332;2023-10-08T14:32:56;28.60;67.40
25554;DHT22;13446;50.926;5.332;2023-10-08T14:35:23;28.50;68.30
25554;DHT22;13446;50.926;5.332;2023-10-08T14:38:17;28.20;68.10
25554;DHT22;13446;50.926;5.332;2023-10-08T14:41:02;28.10;69.30
25554;DHT22;13446;50.926;5.332;2023-10-08T14:43:46;28.00;71.10
25554;DHT22;13446;50.926;5.332;2023-10-08T14:46:13;27.80;71.90
25554;DHT22;13446;50.926;5.332;2023-10-08T14:48:40;27.90;71.70
25554;DHT22;13446;50.926;5.332;2023-10-08T14:51:06;27.80;73.40
25554;DHT22;13446;50.926;5.332;2023-10-08T14:53:32;27.80;73.70
25554;DHT22;13446;50.926;5.332;2023-10-08T14:56:00;27.80;73.20
25554;DHT22;13446;50.926;5.332;2023-10-08T14:58:29;27.60;73.20
25554;DHT22;13446;50.926;5.332;2023-10-08T15:00:55;27.40;73.80
25554;DHT22;13446;50.926;5.332;2023-10-08T15:03:20;27.30;75.20
25554;DHT22;13446;50.926;5.332;2023-10-08T15:05:46;27.30;76.10
25554;DHT22;13446;50.926;5.332;2023-10-08T15:08:13;27.30;75.60
25554;DHT22;13446;50.926;5.332;2023-10-08T15:10:40;27.20;75.80
25554;DHT22;13446;50.926;5.332;2023-10-08T15:13:06;27.10;76.80
25554;DHT22;13446;50.926;5.332;2023-10-08T15:15:32;27.00;77.40
25554;DHT22;13446;50.926;5.332;2023-10-08T15:18:00;26.90;78.20
25554;DHT22;13446;50.926;5.332;2023-10-08T15:20:27;26.70;78.80
25554;DHT22;13446;50.926;5.332;2023-10-08T15:22:55;26.70;80.50
25554;DHT22;13446;50.926;5.332;2023-10-08T15:25:21;26.60;80.70
25554;DHT22;13446;50.926;5.332;2023-10-08T15:27:47;26.60;79.70
25554;DHT22;13446;50.926;5.332;2023-10-08T15:30:17;26.50;78.00
25554;DHT22;13446;50.926;5.332;2023-10-08T15:32:47;26.40;80.10
25554;DHT22;13446;50.926;5.332;2023-10-08T15:35:14;26.20;81.20
25554;DHT22;13446;50.926;5.332;2023-10-08T15:37:42;26.20;81.80
25554;DHT22;13446;50.926;5.332;2023-10-08T15:40:09;26.10;82.40
25554;DHT22;13446;50.926;5.332;2023-10-08T15:42:43;26.10;82.80
25554;DHT22;13446;50.926;5.332;2023-10-08T15:45:09;26.10;83.10
25554;DHT22;13446;50.926;5.332;2023-10-08T15:47:38;26.10;83.10
25554;DHT22;13446;50.926;5.332;2023-10-08T15:50:03;26.10;82.50
25554;DHT22;13446;50.926;5.332;2023-10-08T15:52:30;26.00;84.00
25554;DHT22;13446;50.926;5.332;2023-10-08T15:54:57;25.90;84.60
25554;DHT22;13446;50.926;5.332;2023-10-08T15:57:23;25.80;85.20
25554;DHT22;13446;50.926;5.332;2023-10-08T15:59:48;25.50;87.30